Time;durP1;ratioP1;P1;durP2;ratioP2;P2;SDS_P1;SDS_P2;PMS_P1;PMS_P2;Temp;Humidity;BMP_temperature;BMP_pressure;BME280_temperature;BME280_humidity;BME280_pressure;Samples;Min_cycle;Max_cycle;Signal;HPM_P1;HPM_P2
2021/09/10 00:00:18;;;;;;;0.40;0.33;;;20.70;99.90;;;;;;4950879;29;20193;-85
2021/09/10 00:02:44;;;;;;;0.43;0.43;;;20.80;99.90;;;;;;4952510;29;20192;-85
2021/09/10 00:05:10;;;;;;;0.57;0.57;;;20.60;99.90;;;;;;4954108;28;20221;-85
2021/09/10 00:07:36;;;;;;;0.30;0.30;;;20.50;99.90;;;;;;4955849;29;20276;-85
2021/09/10 00:10:04;;;;;;;0.47;0.47;;;20.50;99.90;;;;;;4956410;29;20743;-85
2021/09/10 00:12:29;;;;;;;2.93;1.00;;;20.50;99.90;;;;;;4956590;28;20185;-85
2021/09/10 00:14:55;;;;;;;1.23;0.83;;;20.50;99.90;;;;;;4955557;29;20207;-84
2021/09/10 00:17:20;;;;;;;0.60;0.40;;;20.40;99.90;;;;;;4954812;29;20196;-85
2021/09/10 00:19:46;;;;;;;0.77;0.60;;;20.40;99.90;;;;;;4955780;29;20193;-85
2021/09/10 00:22:12;;;;;;;0.30;0.30;;;20.40;99.90;;;;;;4956221;29;20193;-85
2021/09/10 00:24:37;;;;;;;0.70;0.70;;;20.60;99.90;;;;;;4955357;29;20234;-85
2021/09/10 00:27:04;;;;;;;0.77;0.60;;;20.80;99.90;;;;;;4955345;29;20688;-86
2021/09/10 00:29:29;;;;;;;0.50;0.50;;;20.70;99.90;;;;;;4955447;29;20235;-85
2021/09/10 00:31:55;;;;;;;0.50;0.50;;;20.80;99.90;;;;;;4955477;29;20213;-85
2021/09/10 00:34:21;;;;;;;0.50;0.50;;;20.80;99.90;;;;;;4955423;29;20282;-85
2021/09/10 00:36:46;;;;;;;0.40;0.40;;;20.90;99.90;;;;;;4955200;29;20276;-84
2021/09/10 00:39:13;;;;;;;0.70;0.57;;;20.80;99.90;;;;;;4955210;29;20212;-85
2021/09/10 00:41:40;;;;;;;0.60;0.60;;;20.80;99.90;;;;;;4955396;29;20227;-86
2021/09/10 00:44:06;;;;;;;0.60;0.60;;;20.90;99.90;;;;;;4955278;29;20626;-86
2021/09/10 00:46:32;;;;;;;0.70;0.70;;;20.80;99.90;;;;;;4955227;29;20300;-85
2021/09/10 00:48:58;;;;;;;1.90;0.73;;;20.80;99.90;;;;;;4955390;29;20264;-85
2021/09/10 00:51:24;;;;;;;0.57;0.47;;;20.70;99.90;;;;;;4955246;29;20281;-85
2021/09/10 00:53:49;;;;;;;0.40;0.40;;;20.60;99.90;;;;;;4956179;28;20376;-86
2021/09/10 00:56:16;;;;;;;0.67;0.67;;;20.50;99.90;;;;;;4951691;29;20265;-86
2021/09/10 00:58:42;;;;;;;0.40;0.40;;;20.50;99.90;;;;;;4953707;29;20538;-85
2021/09/10 01:01:08;;;;;;;1.73;0.50;;;20.50;99.90;;;;;;4955287;29;20192;-85
2021/09/10 01:03:34;;;;;;;0.93;0.73;;;20.50;99.90;;;;;;4955937;29;20197;-85
2021/09/10 01:06:01;;;;;;;0.57;0.57;;;20.60;99.90;;;;;;4954679;29;20208;-86
2021/09/10 01:08:29;;;;;;;0.40;0.40;;;20.70;99.90;;;;;;4970958;28;20200;-86
2021/09/10 01:10:55;;;;;;;1.07;0.63;;;20.80;99.90;;;;;;4956155;28;20651;-86
2021/09/10 01:13:23;;;;;;;1.10;0.73;;;20.90;99.90;;;;;;4954514;29;20283;-86
2021/09/10 01:15:49;;;;;;;2.97;0.57;;;21.00;99.90;;;;;;4950200;28;20281;-85
2021/09/10 01:18:14;;;;;;;0.30;0.30;;;21.00;99.90;;;;;;4951089;29;20193;-85
2021/09/10 01:20:40;;;;;;;0.40;0.40;;;21.00;99.90;;;;;;4954692;29;20196;-85
2021/09/10 01:23:06;;;;;;;5.93;1.33;;;20.90;99.90;;;;;;4954560;29;20223;-85
2021/09/10 01:25:31;;;;;;;0.60;0.60;;;20.60;99.90;;;;;;4954045;29;20213;-85
2021/09/10 01:27:59;;;;;;;0.70;0.70;;;20.50;99.90;;;;;;4954616;29;20189;-85
2021/09/10 01:30:28;;;;;;;0.57;0.57;;;20.40;99.90;;;;;;4954290;29;20208;-86
2021/09/10 01:32:55;;;;;;;0.73;0.73;;;20.30;99.90;;;;;;4955639;28;20196;-85
2021/09/10 01:35:20;;;;;;;0.93;0.87;;;20.30;99.90;;;;;;4952271;28;20217;-85
2021/09/10 01:37:47;;;;;;;0.50;0.50;;;20.30;99.90;;;;;;4952768;29;20196;-85
2021/09/10 01:40:13;;;;;;;0.40;0.40;;;20.30;99.90;;;;;;4954411;29;20192;-85
2021/09/10 01:42:39;;;;;;;0.50;0.50;;;20.30;99.90;;;;;;4952653;29;20262;-85
2021/09/10 01:45:06;;;;;;;0.80;0.80;;;20.40;99.90;;;;;;4953888;29;20228;-85
2021/09/10 01:47:34;;;;;;;1.07;0.53;;;20.50;99.90;;;;;;4954011;29;20537;-86
2021/09/10 01:50:00;;;;;;;1.23;1.10;;;20.40;99.90;;;;;;4954181;29;20178;-86
2021/09/10 01:52:26;;;;;;;0.87;0.87;;;20.50;99.90;;;;;;4954148;29;20199;-85
2021/09/10 01:54:52;;;;;;;0.97;0.57;;;20.20;99.90;;;;;;4953704;29;20213;-85
2021/09/10 01:57:17;;;;;;;1.70;0.50;;;20.20;99.90;;;;;;4953989;29;20193;-85
2021/09/10 01:59:44;;;;;;;1.07;0.50;;;20.30;99.90;;;;;;4955065;28;20193;-85
2021/09/10 02:02:11;;;;;;;0.60;0.60;;;20.30;99.90;;;;;;4955305;28;20228;-85
2021/09/10 02:04:37;;;;;;;0.87;0.60;;;20.10;99.90;;;;;;4953416;29;20201;-85
2021/09/10 02:07:04;;;;;;;0.70;0.70;;;20.20;99.90;;;;;;4953831;29;20189;-85
2021/09/10 02:09:29;;;;;;;0.47;0.47;;;20.20;99.90;;;;;;4953914;29;20189;-85
2021/09/10 02:11:55;;;;;;;1.47;0.60;;;20.30;99.90;;;;;;4953554;29;20614;-85
2021/09/10 02:14:21;;;;;;;0.93;0.87;;;20.40;99.90;;;;;;4953430;29;20189;-85
2021/09/10 02:16:46;;;;;;;0.60;0.60;;;20.50;99.90;;;;;;4953517;29;20209;-86
2021/09/10 02:19:12;;;;;;;0.87;0.60;;;20.60;99.90;;;;;;4953233;29;20255;-85
2021/09/10 02:21:37;;;;;;;0.47;0.43;;;20.50;99.90;;;;;;4953652;29;20227;-85
2021/09/10 02:24:04;;;;;;;0.53;0.53;;;20.60;99.90;;;;;;4953087;29;20324;-85
2021/09/10 02:26:31;;;;;;;0.60;0.60;;;20.40;99.90;;;;;;4953411;28;20212;-85
2021/09/10 02:28:56;;;;;;;0.80;0.80;;;20.30;99.90;;;;;;4953137;29;20204;-85
2021/09/10 02:31:22;;;;;;;1.27;0.67;;;20.20;99.90;;;;;;4954649;29;20181;-85
2021/09/10 02:33:48;;;;;;;0.50;0.50;;;20.10;99.90;;;;;;4952769;29;20181;-85
2021/09/10 02:36:13;;;;;;;1.27;1.17;;;20.00;99.90;;;;;;4954712;28;20268;-85
2021/09/10 02:38:39;;;;;;;1.10;0.90;;;20.20;99.90;;;;;;4953280;29;20547;-85
2021/09/10 02:41:05;;;;;;;1.03;0.77;;;20.20;99.90;;;;;;4951758;29;20205;-86
2021/09/10 02:43:30;;;;;;;1.30;1.20;;;20.10;99.90;;;;;;4950355;29;20236;-85
2021/09/10 02:45:56;;;;;;;0.70;0.70;;;20.10;99.90;;;;;;4953146;29;20219;-84
2021/09/10 02:48:21;;;;;;;0.37;0.37;;;20.10;99.90;;;;;;4953173;29;20184;-85
2021/09/10 02:50:47;;;;;;;0.57;0.57;;;20.20;99.90;;;;;;4953176;29;20195;-85
2021/09/10 02:53:13;;;;;;;0.53;0.53;;;20.30;99.90;;;;;;4952767;29;20185;-85
2021/09/10 02:55:38;;;;;;;0.53;0.50;;;20.30;99.90;;;;;;4953092;29;20211;-85
2021/09/10 02:58:04;;;;;;;0.57;0.57;;;20.40;99.90;;;;;;4953083;29;20192;-85
2021/09/10 03:00:29;;;;;;;0.90;0.70;;;20.30;99.90;;;;;;4953021;29;20447;-84
2021/09/10 03:02:55;;;;;;;0.83;0.83;;;20.00;99.90;;;;;;4954148;28;20253;-85
2021/09/10 03:05:20;;;;;;;4.03;0.60;;;19.90;99.90;;;;;;4950303;29;20274;-85
2021/09/10 03:07:46;;;;;;;1.00;1.00;;;20.10;99.90;;;;;;4952873;29;20192;-85
2021/09/10 03:10:12;;;;;;;0.60;0.60;;;20.00;99.90;;;;;;4952919;29;20200;-86
2021/09/10 03:12:39;;;;;;;0.50;0.50;;;19.90;99.90;;;;;;4953105;29;20185;-84
2021/09/10 03:15:08;;;;;;;1.97;1.07;;;19.90;99.90;;;;;;4952619;28;20209;-85
2021/09/10 03:17:33;;;;;;;1.27;0.90;;;19.80;99.90;;;;;;4950193;29;20556;-85
2021/09/10 03:19:59;;;;;;;1.77;1.27;;;19.70;99.90;;;;;;4954145;29;20185;-85
2021/09/10 03:22:24;;;;;;;0.47;0.47;;;19.70;99.90;;;;;;4952969;29;20185;-85
2021/09/10 03:24:50;;;;;;;0.77;0.77;;;19.70;99.90;;;;;;4952191;29;20224;-85
2021/09/10 03:27:16;;;;;;;1.97;1.33;;;19.60;99.90;;;;;;4954114;29;20189;-85
2021/09/10 03:29:42;;;;;;;0.77;0.70;;;19.50;99.90;;;;;;4952194;29;20237;-85
2021/09/10 03:32:08;;;;;;;1.00;1.00;;;19.40;99.90;;;;;;4953237;29;20236;-85
2021/09/10 03:34:34;;;;;;;0.80;0.80;;;19.40;99.90;;;;;;4951415;28;20744;-85
2021/09/10 03:36:59;;;;;;;0.57;0.57;;;19.40;99.90;;;;;;4950651;29;20189;-86
2021/09/10 03:39:25;;;;;;;2.30;0.90;;;19.50;99.90;;;;;;4951896;28;20608;-84
2021/09/10 03:41:51;;;;;;;0.93;0.83;;;19.60;99.90;;;;;;4954099;29;20197;-85
2021/09/10 03:44:16;;;;;;;0.50;0.50;;;19.70;99.90;;;;;;4954846;29;20812;-85
2021/09/10 03:46:42;;;;;;;1.60;0.70;;;19.70;99.90;;;;;;4954838;29;20213;-85
2021/09/10 03:49:08;;;;;;;0.43;0.43;;;19.70;99.90;;;;;;4955313;29;20559;-85
2021/09/10 03:51:33;;;;;;;0.70;0.60;;;19.70;99.90;;;;;;4955705;28;20268;-86
2021/09/10 03:53:59;;;;;;;0.40;0.40;;;19.80;99.90;;;;;;4954452;29;20619;-85
2021/09/10 03:56:24;;;;;;;1.67;1.57;;;19.80;99.90;;;;;;4955850;28;20205;-85
2021/09/10 03:58:50;;;;;;;2.00;0.73;;;19.80;99.90;;;;;;4954742;29;20312;-85
2021/09/10 04:01:16;;;;;;;1.00;0.90;;;19.90;99.90;;;;;;4970263;28;20635;-85
2021/09/10 04:03:41;;;;;;;0.40;0.40;;;20.00;99.90;;;;;;4954026;29;20264;-85
2021/09/10 04:06:08;;;;;;;0.93;0.80;;;20.10;99.90;;;;;;4954312;28;20219;-85
2021/09/10 04:08:33;;;;;;;0.73;0.63;;;20.10;99.90;;;;;;4955843;29;20654;-85
2021/09/10 04:10:59;;;;;;;1.57;1.23;;;19.90;99.90;;;;;;4954159;29;20181;-86
2021/09/10 04:13:25;;;;;;;1.30;0.90;;;19.70;99.90;;;;;;4954545;29;20209;-85
2021/09/10 04:15:50;;;;;;;0.87;0.70;;;19.70;99.90;;;;;;4954098;28;20213;-85
2021/09/10 04:18:16;;;;;;;1.10;1.00;;;19.60;99.90;;;;;;4954788;28;20677;-86
2021/09/10 04:20:42;;;;;;;0.80;0.80;;;19.40;99.90;;;;;;4955493;28;20185;-85
2021/09/10 04:23:07;;;;;;;0.70;0.70;;;19.40;99.90;;;;;;4969969;28;20188;-85
2021/09/10 04:25:33;;;;;;;1.60;1.50;;;19.30;99.90;;;;;;4953899;29;20209;-86
2021/09/10 04:27:58;;;;;;;1.17;1.03;;;19.30;99.90;;;;;;4953874;29;20224;-85
2021/09/10 04:30:24;;;;;;;1.50;0.63;;;19.30;99.90;;;;;;4918069;29;1092672;-85
2021/09/10 04:32:50;;;;;;;6.07;1.10;;;19.30;99.90;;;;;;4957275;28;20659;-86
2021/09/10 04:35:15;;;;;;;0.93;0.70;;;19.30;99.90;;;;;;4956680;28;20623;-85
2021/09/10 04:37:41;;;;;;;0.60;0.60;;;19.30;99.90;;;;;;4955300;29;20217;-85
2021/09/10 04:40:08;;;;;;;1.40;0.83;;;19.40;99.90;;;;;;4954666;29;20228;-84
2021/09/10 04:42:34;;;;;;;0.77;0.77;;;19.40;99.90;;;;;;4955023;29;20236;-85
2021/09/10 04:45:01;;;;;;;0.47;0.43;;;19.50;99.90;;;;;;4955819;28;20303;-85
2021/09/10 04:47:27;;;;;;;0.57;0.57;;;19.50;99.90;;;;;;4954631;28;20185;-85
2021/09/10 04:49:54;;;;;;;1.60;1.03;;;19.40;99.90;;;;;;4955865;28;20195;-85
2021/09/10 04:52:19;;;;;;;1.57;0.83;;;19.40;99.90;;;;;;4955829;29;20211;-85
2021/09/10 04:54:45;;;;;;;0.43;0.43;;;19.40;99.90;;;;;;4954590;29;20185;-85
2021/09/10 04:57:10;;;;;;;3.50;0.80;;;19.30;99.90;;;;;;4955899;29;20224;-86
2021/09/10 04:59:36;;;;;;;0.67;0.67;;;19.50;99.90;;;;;;4954750;29;20193;-86
2021/09/10 05:02:02;;;;;;;0.67;0.67;;;19.50;99.90;;;;;;4954660;29;20193;-85
2021/09/10 05:04:27;;;;;;;2.00;1.00;;;19.50;99.90;;;;;;4955834;28;20213;-86
2021/09/10 05:06:53;;;;;;;0.60;0.60;;;19.70;99.90;;;;;;4954619;29;20269;-85
2021/09/10 05:09:19;;;;;;;0.60;0.60;;;19.80;99.90;;;;;;4951758;28;20276;-84
2021/09/10 05:11:45;;;;;;;0.60;0.57;;;19.80;99.90;;;;;;4955028;29;20297;-85
2021/09/10 05:14:11;;;;;;;0.40;0.40;;;19.60;99.90;;;;;;4954845;29;20279;-85
2021/09/10 05:16:37;;;;;;;0.77;0.77;;;19.50;99.90;;;;;;4954214;29;20236;-84
2021/09/10 05:19:03;;;;;;;0.83;0.80;;;19.30;99.90;;;;;;4954815;29;20189;-84
2021/09/10 05:21:30;;;;;;;1.27;0.87;;;19.20;99.90;;;;;;4949900;28;20565;-84
2021/09/10 05:23:55;;;;;;;0.80;0.80;;;19.30;99.90;;;;;;4955471;29;20189;-84
2021/09/10 05:26:21;;;;;;;0.80;0.60;;;19.30;99.90;;;;;;4954410;28;20205;-84
2021/09/10 05:28:47;;;;;;;0.80;0.80;;;19.50;99.90;;;;;;4953466;29;20216;-84
2021/09/10 05:31:13;;;;;;;0.63;0.63;;;19.50;99.90;;;;;;4969988;28;20193;-83
2021/09/10 05:33:38;;;;;;;1.13;0.97;;;19.40;99.90;;;;;;4954553;29;20264;-83
2021/09/10 05:36:04;;;;;;;1.17;0.83;;;19.20;99.90;;;;;;4954169;28;20714;-82
2021/09/10 05:38:30;;;;;;;0.90;0.90;;;19.20;99.90;;;;;;4955672;28;20276;-83
2021/09/10 05:40:56;;;;;;;0.70;0.60;;;19.10;99.90;;;;;;4954572;29;20212;-83
2021/09/10 05:43:21;;;;;;;4.13;0.77;;;19.20;99.90;;;;;;4954604;29;20712;-83
2021/09/10 05:45:47;;;;;;;1.40;0.97;;;19.30;99.90;;;;;;4956526;28;20212;-82
2021/09/10 05:48:13;;;;;;;1.40;0.60;;;19.50;99.90;;;;;;4955767;29;20236;-84
2021/09/10 05:50:39;;;;;;;2.00;1.40;;;19.60;99.90;;;;;;4955564;29;20192;-84
2021/09/10 05:53:06;;;;;;;0.60;0.60;;;19.50;99.90;;;;;;4969977;28;20642;-87
2021/09/10 05:55:32;;;;;;;1.37;1.27;;;19.50;99.90;;;;;;4952068;28;20212;-84
2021/09/10 05:57:58;;;;;;;1.60;0.90;;;19.50;99.90;;;;;;4951364;28;20280;-86
2021/09/10 06:00:23;;;;;;;1.57;1.47;;;19.50;99.90;;;;;;4952609;29;20184;-85
2021/09/10 06:02:49;;;;;;;1.87;1.77;;;19.50;99.90;;;;;;4953778;28;20185;-86
2021/09/10 06:05:14;;;;;;;1.10;1.03;;;19.50;99.90;;;;;;4953371;28;20208;-87
2021/09/10 06:07:42;;;;;;;1.97;1.87;;;19.50;99.90;;;;;;4948129;29;20186;-86
2021/09/10 06:10:08;;;;;;;0.80;0.80;;;19.50;99.90;;;;;;4953743;29;20240;-86
2021/09/10 06:12:34;;;;;;;2.40;1.10;;;19.70;99.90;;;;;;4953565;29;20219;-86
2021/09/10 06:14:59;;;;;;;0.83;0.60;;;20.00;99.90;;;;;;5005725;23;20233;-83
2021/09/10 06:17:25;;;;;;;0.50;0.50;;;20.10;99.90;;;;;;4998594;28;20182;-83
2021/09/10 06:19:51;;;;;;;0.90;0.90;;;20.20;99.90;;;;;;5012984;28;20195;-84
2021/09/10 06:22:16;;;;;;;2.57;0.97;;;20.20;99.90;;;;;;5003303;28;20180;-83
2021/09/10 06:24:42;;;;;;;0.60;0.53;;;20.30;99.90;;;;;;5025209;28;20211;-83
2021/09/10 06:27:07;;;;;;;0.63;0.63;;;20.30;99.90;;;;;;5001903;28;20655;-82
2021/09/10 06:29:33;;;;;;;1.30;1.00;;;20.20;99.90;;;;;;5002026;28;20302;-84
2021/09/10 06:31:58;;;;;;;1.00;1.00;;;20.20;99.90;;;;;;5007438;28;20175;-83
2021/09/10 06:34:26;;;;;;;0.77;0.77;;;20.30;99.90;;;;;;5003074;28;20208;-84
2021/09/10 06:36:51;;;;;;;3.07;1.40;;;20.20;99.90;;;;;;4997302;28;20184;-84
2021/09/10 06:39:18;;;;;;;0.80;0.70;;;20.10;99.90;;;;;;4997266;28;20211;-83
2021/09/10 06:41:44;;;;;;;1.13;0.97;;;20.10;99.90;;;;;;5004742;28;20183;-84
2021/09/10 06:44:10;;;;;;;1.17;1.03;;;20.10;99.90;;;;;;5002162;28;20731;-84
2021/09/10 06:46:36;;;;;;;0.80;0.80;;;20.40;99.90;;;;;;5003238;28;20191;-84
2021/09/10 06:49:01;;;;;;;0.77;0.70;;;20.70;99.90;;;;;;5000620;28;20233;-84
2021/09/10 06:51:27;;;;;;;2.27;1.33;;;21.00;99.90;;;;;;5001784;28;20176;-82
2021/09/10 06:53:53;;;;;;;0.93;0.93;;;21.40;99.90;;;;;;5003275;28;20240;-83
2021/09/10 06:56:19;;;;;;;1.00;0.90;;;21.80;99.90;;;;;;4988564;28;20188;-82
2021/09/10 06:58:44;;;;;;;0.83;0.77;;;22.30;99.90;;;;;;5001385;28;20183;-84
2021/09/10 07:01:11;;;;;;;0.90;0.83;;;22.80;99.90;;;;;;4996535;28;20196;-82
2021/09/10 07:03:37;;;;;;;1.10;0.70;;;22.90;99.90;;;;;;5006359;28;20210;-83
2021/09/10 07:06:03;;;;;;;0.93;0.93;;;23.10;99.90;;;;;;4997835;28;20327;-84
2021/09/10 07:08:30;;;;;;;1.27;1.17;;;23.20;99.90;;;;;;4999422;28;20180;-83
2021/09/10 07:10:56;;;;;;;0.30;0.30;;;23.40;99.90;;;;;;5001380;28;20266;-83
2021/09/10 07:13:21;;;;;;;1.00;1.00;;;23.40;99.90;;;;;;5005466;28;20203;-83
2021/09/10 07:15:47;;;;;;;1.23;0.73;;;23.30;99.90;;;;;;4998950;28;20321;-83
2021/09/10 07:18:12;;;;;;;1.33;0.93;;;23.30;99.90;;;;;;5001721;28;20207;-83
2021/09/10 07:20:38;;;;;;;1.27;0.90;;;23.20;99.90;;;;;;5017565;28;20230;-82
2021/09/10 07:23:03;;;;;;;2.63;1.50;;;23.30;99.90;;;;;;5011445;28;20210;-83
2021/09/10 07:25:29;;;;;;;1.73;0.90;;;23.40;99.90;;;;;;4996038;28;20310;-84
2021/09/10 07:27:55;;;;;;;1.13;0.97;;;23.50;99.90;;;;;;5001231;28;20179;-84
2021/09/10 07:30:20;;;;;;;0.77;0.77;;;23.60;99.90;;;;;;4996054;28;20258;-83
2021/09/10 07:32:46;;;;;;;1.23;0.70;;;23.50;99.90;;;;;;4998604;28;20172;-83
2021/09/10 07:35:11;;;;;;;1.77;1.17;;;23.50;99.90;;;;;;4997509;28;20243;-83
2021/09/10 07:37:37;;;;;;;0.70;0.70;;;23.60;99.90;;;;;;4995384;28;20184;-83
2021/09/10 07:40:07;;;;;;;0.60;0.57;;;23.50;99.90;;;;;;5014363;28;20180;-83
2021/09/10 07:42:33;;;;;;;0.70;0.70;;;23.50;99.90;;;;;;4998176;28;20230;-85
2021/09/10 07:44:58;;;;;;;1.33;0.97;;;23.50;99.90;;;;;;4994636;28;20203;-82
2021/09/10 07:47:24;;;;;;;0.70;0.70;;;23.50;99.90;;;;;;5004095;28;20180;-82
2021/09/10 07:49:50;;;;;;;1.03;0.70;;;23.60;99.90;;;;;;5003157;28;20204;-82
2021/09/10 07:52:15;;;;;;;0.40;0.40;;;23.60;99.90;;;;;;4993078;28;20180;-83
2021/09/10 07:54:41;;;;;;;1.07;0.87;;;23.60;99.90;;;;;;5002403;28;20402;-82
2021/09/10 07:57:06;;;;;;;0.70;0.70;;;23.60;99.90;;;;;;5004602;28;20199;-83
2021/09/10 07:59:32;;;;;;;1.17;0.60;;;23.50;99.90;;;;;;5007607;28;20234;-82
2021/09/10 08:01:58;;;;;;;1.47;0.80;;;23.30;99.90;;;;;;5000138;28;20214;-83
2021/09/10 08:04:25;;;;;;;0.80;0.67;;;23.30;99.90;;;;;;5000772;28;20575;-83
2021/09/10 08:06:51;;;;;;;0.80;0.80;;;23.40;99.90;;;;;;5010518;28;20190;-83
2021/09/10 08:09:16;;;;;;;1.03;0.63;;;23.60;99.90;;;;;;5016762;28;20192;-84
2021/09/10 08:11:42;;;;;;;0.50;0.50;;;23.80;99.90;;;;;;5002281;28;20188;-83
2021/09/10 08:14:09;;;;;;;1.03;0.90;;;24.10;99.90;;;;;;5002960;28;20215;-83
2021/09/10 08:16:35;;;;;;;0.70;0.70;;;24.40;99.90;;;;;;5006850;28;20206;-84
2021/09/10 08:19:01;;;;;;;1.10;1.00;;;24.60;99.90;;;;;;4997090;28;20188;-85
2021/09/10 08:21:26;;;;;;;0.57;0.53;;;24.90;99.90;;;;;;5006213;28;20198;-84
2021/09/10 08:23:52;;;;;;;1.17;1.03;;;25.20;99.90;;;;;;5006448;28;20203;-84
2021/09/10 08:26:18;;;;;;;0.70;0.70;;;25.30;99.90;;;;;;5011041;28;20208;-84
2021/09/10 08:28:44;;;;;;;0.70;0.70;;;25.20;99.90;;;;;;5007362;28;20195;-83
2021/09/10 08:31:09;;;;;;;0.50;0.50;;;25.30;99.90;;;;;;5001292;28;20253;-85
2021/09/10 08:33:35;;;;;;;0.80;0.80;;;25.30;99.90;;;;;;5015009;28;20176;-84
2021/09/10 08:36:02;;;;;;;0.20;0.20;;;25.30;99.90;;;;;;5010502;28;20249;-83
2021/09/10 08:38:28;;;;;;;1.20;0.90;;;25.30;99.90;;;;;;5011985;28;20187;-82
2021/09/10 08:40:56;;;;;;;0.60;0.60;;;25.10;99.90;;;;;;5014811;28;20195;-83
2021/09/10 08:43:23;;;;;;;1.80;0.60;;;24.90;99.90;;;;;;5012609;28;20172;-83
2021/09/10 08:45:48;;;;;;;1.07;0.73;;;24.90;99.90;;;;;;5014859;28;20218;-82
2021/09/10 08:48:17;;;;;;;0.60;0.60;;;25.00;99.90;;;;;;5015902;28;20198;-82
2021/09/10 08:50:43;;;;;;;1.20;1.10;;;25.00;99.90;;;;;;5014657;28;20176;-83
2021/09/10 08:53:09;;;;;;;3.80;3.07;;;25.00;99.90;;;;;;5016403;28;20195;-82
2021/09/10 08:55:35;;;;;;;1.07;1.07;;;25.10;99.90;;;;;;5016829;28;20208;-81
2021/09/10 08:58:00;;;;;;;0.93;0.93;;;25.20;99.90;;;;;;5014432;28;20180;-82
2021/09/10 09:00:32;;;;;;;0.87;0.87;;;24.90;99.90;;;;;;5010804;28;20289;-83
2021/09/10 09:03:08;;;;;;;0.83;0.83;;;24.80;99.90;;;;;;5014445;28;20164;-83
2021/09/10 09:05:35;;;;;;;1.20;1.20;;;24.70;99.90;;;;;;5007503;28;20279;-82
2021/09/10 09:08:17;;;;;;;1.03;0.80;;;24.60;99.90;;;;;;5011238;28;20199;-82
2021/09/10 09:10:59;;;;;;;0.70;0.50;;;24.60;99.90;;;;;;5009343;28;20186;-82
2021/09/10 09:13:29;;;;;;;0.90;0.90;;;24.70;99.90;;;;;;4994470;28;20191;-82
2021/09/10 09:16:17;;;;;;;1.67;1.00;;;24.90;99.90;;;;;;4999665;28;20184;-82
2021/09/10 09:18:45;;;;;;;0.93;0.93;;;25.00;99.90;;;;;;4997595;28;20263;-82
2021/09/10 09:21:11;;;;;;;1.70;1.20;;;25.10;99.90;;;;;;4990334;28;20191;-82
2021/09/10 09:23:37;;;;;;;1.47;1.03;;;25.30;99.90;;;;;;4985562;28;20246;-82
2021/09/10 09:26:13;;;;;;;1.27;1.00;;;25.30;99.90;;;;;;4989749;28;20587;-82
2021/09/10 09:28:39;;;;;;;1.13;1.00;;;25.30;99.90;;;;;;4995257;28;20191;-82
2021/09/10 09:31:07;;;;;;;1.80;0.90;;;25.30;99.90;;;;;;5009994;28;20176;-82
2021/09/10 09:33:34;;;;;;;1.60;1.27;;;25.30;99.90;;;;;;4998306;28;20313;-82
2021/09/10 09:36:05;;;;;;;0.50;0.50;;;25.30;99.90;;;;;;4987429;28;20191;-82
2021/09/10 09:38:37;;;;;;;1.17;1.10;;;25.30;99.90;;;;;;4996453;28;20529;-82
2021/09/10 09:41:07;;;;;;;1.10;0.80;;;25.10;99.90;;;;;;4994513;28;20574;-82
2021/09/10 09:43:40;;;;;;;0.83;0.83;;;25.10;99.90;;;;;;5000981;28;20183;-82
2021/09/10 09:46:11;;;;;;;1.10;0.67;;;24.80;99.90;;;;;;4997372;28;20207;-81
2021/09/10 09:48:39;;;;;;;1.20;0.87;;;24.80;99.90;;;;;;4994733;28;20194;-82
2021/09/10 09:51:05;;;;;;;2.37;0.83;;;24.80;99.90;;;;;;4996899;28;20218;-82
2021/09/10 09:53:32;;;;;;;0.50;0.50;;;24.80;99.90;;;;;;4990600;28;20180;-82
2021/09/10 09:56:00;;;;;;;0.83;0.80;;;24.70;99.90;;;;;;4995802;28;20202;-82
2021/09/10 09:58:28;;;;;;;0.57;0.57;;;24.60;99.90;;;;;;4994581;28;20184;-82
2021/09/10 10:00:54;;;;;;;0.80;0.80;;;24.60;99.90;;;;;;4995738;28;20192;-82
2021/09/10 10:03:19;;;;;;;0.53;0.53;;;24.50;99.90;;;;;;4991511;28;20183;-82
2021/09/10 10:05:52;;;;;;;1.33;0.90;;;24.40;99.90;;;;;;4991239;28;20799;-82
2021/09/10 10:08:23;;;;;;;0.80;0.80;;;24.40;99.90;;;;;;4989643;28;20184;-82
2021/09/10 10:10:52;;;;;;;0.90;0.90;;;24.30;99.90;;;;;;4991168;28;20176;-82
2021/09/10 10:13:28;;;;;;;0.90;0.90;;;24.20;99.90;;;;;;4991091;28;20266;-82
2021/09/10 10:15:55;;;;;;;0.63;0.63;;;24.10;99.90;;;;;;4993495;28;20730;-82
2021/09/10 10:18:43;;;;;;;0.67;0.50;;;24.10;99.90;;;;;;4996814;28;20191;-82
2021/09/10 10:21:10;;;;;;;0.40;0.40;;;24.00;99.90;;;;;;4994924;28;20187;-82
2021/09/10 10:23:42;;;;;;;0.77;0.77;;;24.00;99.90;;;;;;4989203;28;20184;-82
2021/09/10 10:26:09;;;;;;;1.10;0.93;;;23.80;99.90;;;;;;4984894;28;20203;-82
2021/09/10 10:28:42;;;;;;;0.70;0.70;;;23.90;99.90;;;;;;4989876;28;20180;-82
2021/09/10 10:31:07;;;;;;;0.93;0.87;;;23.90;99.90;;;;;;4997387;28;20686;-81
2021/09/10 10:33:33;;;;;;;7.60;0.60;;;23.80;99.90;;;;;;4994404;28;20243;-82
2021/09/10 10:36:28;;;;;;;0.40;0.40;;;23.90;99.90;;;;;;4995518;28;20180;-82
2021/09/10 10:39:13;;;;;;;1.03;0.50;;;24.10;99.90;;;;;;4998989;28;20190;-82
2021/09/10 10:41:56;;;;;;;0.50;0.50;;;24.10;99.90;;;;;;4994997;28;20195;-82
2021/09/10 10:44:34;;;;;;;0.40;0.40;;;24.00;99.90;;;;;;4993327;28;20203;-82
2021/09/10 10:47:30;;;;;;;1.47;0.97;;;23.80;99.90;;;;;;4996965;28;20186;-82
2021/09/10 10:49:56;;;;;;;0.60;0.60;;;23.70;99.90;;;;;;5002341;28;20175;-83
2021/09/10 10:52:31;;;;;;;0.40;0.40;;;23.70;99.90;;;;;;5001068;28;20843;-82
2021/09/10 10:55:19;;;;;;;0.40;0.40;;;23.80;99.90;;;;;;4992749;28;20203;-82
2021/09/10 10:57:54;;;;;;;0.43;0.43;;;23.90;99.90;;;;;;4996986;28;20275;-82
2021/09/10 11:00:29;;;;;;;0.60;0.60;;;23.90;99.90;;;;;;4999419;28;20183;-82
2021/09/10 11:03:13;;;;;;;0.90;0.30;;;23.70;99.90;;;;;;4989672;28;20192;-82
2021/09/10 11:05:39;;;;;;;0.97;0.57;;;23.70;99.90;;;;;;4997260;28;20199;-83
2021/09/10 11:08:05;;;;;;;1.27;0.70;;;23.70;99.90;;;;;;4989604;28;20180;-83
2021/09/10 11:10:31;;;;;;;0.70;0.70;;;23.90;99.90;;;;;;4993437;28;20188;-83
2021/09/10 11:12:58;;;;;;;0.63;0.57;;;24.00;99.90;;;;;;4995067;28;20177;-82
2021/09/10 11:15:29;;;;;;;1.17;0.77;;;24.10;99.90;;;;;;4998117;28;20254;-83
2021/09/10 11:18:04;;;;;;;0.73;0.70;;;24.20;99.90;;;;;;4995885;28;20622;-83
2021/09/10 11:20:36;;;;;;;0.60;0.60;;;24.30;99.90;;;;;;4993337;28;20672;-82
2021/09/10 11:23:07;;;;;;;0.50;0.50;;;24.20;99.90;;;;;;4989568;28;20184;-82
2021/09/10 11:25:34;;;;;;;0.37;0.37;;;24.20;99.90;;;;;;5004195;28;20239;-83
2021/09/10 11:28:07;;;;;;;0.43;0.43;;;24.30;99.90;;;;;;4999370;28;20197;-82
2021/09/10 11:30:32;;;;;;;0.57;0.50;;;24.30;99.90;;;;;;4991504;28;20191;-82
2021/09/10 11:33:00;;;;;;;1.00;0.90;;;24.10;99.90;;;;;;4987605;28;20264;-82
2021/09/10 11:35:30;;;;;;;0.50;0.50;;;24.10;99.90;;;;;;4993399;28;20208;-82
2021/09/10 11:38:00;;;;;;;0.53;0.53;;;24.10;99.90;;;;;;4999024;28;20556;-82
2021/09/10 11:40:38;;;;;;;0.80;0.80;;;24.00;99.90;;;;;;4990856;28;20266;-83
2021/09/10 11:43:11;;;;;;;0.40;0.40;;;23.80;99.90;;;;;;4999811;28;20187;-82
2021/09/10 11:45:45;;;;;;;0.57;0.57;;;23.80;99.90;;;;;;5003410;28;20322;-82
2021/09/10 11:48:13;;;;;;;0.30;0.30;;;23.80;99.90;;;;;;5001870;28;20191;-82
2021/09/10 11:50:46;;;;;;;0.83;0.73;;;23.80;99.90;;;;;;4998410;28;20176;-82
2021/09/10 11:53:20;;;;;;;1.27;0.37;;;23.90;99.90;;;;;;5002164;28;20191;-82
2021/09/10 11:56:06;;;;;;;0.90;0.70;;;24.00;99.90;;;;;;5000999;28;20203;-82
2021/09/10 11:58:32;;;;;;;0.40;0.40;;;24.10;99.90;;;;;;4995423;28;20953;-83
2021/09/10 12:01:24;;;;;;;1.00;0.50;;;24.40;99.90;;;;;;4993822;28;20187;-82
2021/09/10 12:04:02;;;;;;;0.60;0.43;;;24.80;99.90;;;;;;4996631;28;20210;-83
2021/09/10 12:06:30;;;;;;;0.60;0.60;;;25.30;99.90;;;;;;4988743;28;20204;-82
2021/09/10 12:09:14;;;;;;;0.90;0.90;;;25.60;99.90;;;;;;4995893;28;20179;-82
2021/09/10 12:12:06;;;;;;;0.93;0.93;;;25.80;99.90;;;;;;5012028;28;20184;-84
2021/09/10 12:14:41;;;;;;;1.10;1.10;;;26.10;99.90;;;;;;5000799;28;20228;-83
2021/09/10 12:17:24;;;;;;;1.17;0.40;;;26.40;99.90;;;;;;4992248;28;20557;-82
2021/09/10 12:20:00;;;;;;;0.50;0.50;;;26.30;99.90;;;;;;4986514;28;20239;-82
2021/09/10 12:22:31;;;;;;;0.83;0.60;;;26.20;99.90;;;;;;4991310;28;20184;-82
2021/09/10 12:25:18;;;;;;;0.60;0.40;;;26.10;99.90;;;;;;4983251;28;20286;-81
2021/09/10 12:27:44;;;;;;;0.30;0.30;;;26.10;99.90;;;;;;4985998;28;20254;-82
2021/09/10 12:30:12;;;;;;;0.80;0.80;;;26.00;99.90;;;;;;4987171;28;20193;-81
2021/09/10 12:32:38;;;;;;;0.63;0.60;;;26.30;99.90;;;;;;4993200;28;20264;-82
2021/09/10 12:35:04;;;;;;;0.80;0.80;;;26.30;99.90;;;;;;4993698;28;20243;-81
2021/09/10 12:37:30;;;;;;;0.63;0.60;;;26.20;99.90;;;;;;4992007;28;20568;-81
2021/09/10 12:39:55;;;;;;;0.80;0.70;;;26.30;99.90;;;;;;4987852;28;20194;-81
2021/09/10 12:42:21;;;;;;;1.33;0.90;;;26.30;99.90;;;;;;4989800;28;20242;-80
2021/09/10 12:44:47;;;;;;;1.33;1.03;;;26.30;99.90;;;;;;4992739;28;20676;-81
2021/09/10 12:47:12;;;;;;;0.70;0.53;;;26.30;99.90;;;;;;4988774;28;20192;-81
2021/09/10 12:49:38;;;;;;;1.37;1.27;;;26.40;99.90;;;;;;4993559;28;20188;-80